sensor_id;sensor_type;location;lat;lon;timestamp;temperature;humidity
8928;DHT22;4499;48.304;11.902;2022-11-20T00:01:08;4.80;99.90
8928;DHT22;4499;48.304;11.902;2022-11-20T00:03:37;4.80;99.90
8928;DHT22;4499;48.304;11.902;2022-11-20T00:06:06;4.70;99.90
8928;DHT22;4499;48.304;11.902;2022-11-20T00:08:38;4.80;99.90
8928;DHT22;4499;48.304;11.902;2022-11-20T00:11:06;4.90;99.90
8928;DHT22;4499;48.304;11.902;2022-11-20T00:13:43;4.80;99.90
8928;DHT22;4499;48.304;11.902;2022-11-20T00:16:13;4.90;99.90
8928;DHT22;4499;48.304;11.902;2022-11-20T00:18:43;4.90;99.90
8928;DHT22;4499;48.304;11.902;2022-11-20T00:21:14;4.90;99.90
8928;DHT22;4499;48.304;11.902;2022-11-20T00:23:43;4.90;99.90
8928;DHT22;4499;48.304;11.902;2022-11-20T00:26:14;4.90;99.90
8928;DHT22;4499;48.304;11.902;2022-11-20T00:28:48;4.90;99.90
8928;DHT22;4499;48.304;11.902;2022-11-20T00:31:19;4.90;99.90
8928;DHT22;4499;48.304;11.902;2022-11-20T00:33:48;4.90;99.90
8928;DHT22;4499;48.304;11.902;2022-11-20T00:36:18;4.90;99.90
8928;DHT22;4499;48.304;11.902;2022-11-20T00:38:51;4.90;99.90
8928;DHT22;4499;48.304;11.902;2022-11-20T00:41:19;4.90;99.90
8928;DHT22;4499;48.304;11.902;2022-11-20T00:43:49;5.00;99.90
8928;DHT22;4499;48.304;11.902;2022-11-20T00:46:19;4.90;99.90
8928;DHT22;4499;48.304;11.902;2022-11-20T00:48:48;4.90;99.90
8928;DHT22;4499;48.304;11.902;2022-11-20T00:51:21;4.90;99.90
8928;DHT22;4499;48.304;11.902;2022-11-20T00:53:50;4.90;99.90
8928;DHT22;4499;48.304;11.902;2022-11-20T00:56:19;4.90;99.90
8928;DHT22;4499;48.304;11.902;2022-11-20T00:58:49;4.90;99.90
8928;DHT22;4499;48.304;11.902;2022-11-20T01:01:19;4.90;99.90
8928;DHT22;4499;48.304;11.902;2022-11-20T01:03:50;4.90;99.90
8928;DHT22;4499;48.304;11.902;2022-11-20T01:06:21;4.90;99.90
8928;DHT22;4499;48.304;11.902;2022-11-20T01:08:58;4.80;99.90
8928;DHT22;4499;48.304;11.902;2022-11-20T01:11:34;4.90;99.90
8928;DHT22;4499;48.304;11.902;2022-11-20T01:14:05;4.80;99.90
8928;DHT22;4499;48.304;11.902;2022-11-20T01:16:35;4.90;99.90
8928;DHT22;4499;48.304;11.902;2022-11-20T01:19:06;4.80;99.90
8928;DHT22;4499;48.304;11.902;2022-11-20T01:21:36;4.80;99.90
8928;DHT22;4499;48.304;11.902;2022-11-20T01:24:11;4.80;99.90
8928;DHT22;4499;48.304;11.902;2022-11-20T01:26:42;4.80;99.90
8928;DHT22;4499;48.304;11.902;2022-11-20T01:29:17;4.80;99.90
8928;DHT22;4499;48.304;11.902;2022-11-20T01:31:46;4.80;99.90
8928;DHT22;4499;48.304;11.902;2022-11-20T01:34:16;4.80;99.90
8928;DHT22;4499;48.304;11.902;2022-11-20T01:36:50;4.80;99.90
8928;DHT22;4499;48.304;11.902;2022-11-20T01:39:20;4.80;99.90
8928;DHT22;4499;48.304;11.902;2022-11-20T01:41:51;4.80;99.90
8928;DHT22;4499;48.304;11.902;2022-11-20T01:44:51;4.70;99.90
8928;DHT22;4499;48.304;11.902;2022-11-20T01:47:25;4.70;99.90
8928;DHT22;4499;48.304;11.902;2022-11-20T01:50:04;4.80;99.90
8928;DHT22;4499;48.304;11.902;2022-11-20T01:52:39;4.80;99.90
8928;DHT22;4499;48.304;11.902;2022-11-20T01:55:10;4.80;99.90
8928;DHT22;4499;48.304;11.902;2022-11-20T01:57:42;4.80;99.90
8928;DHT22;4499;48.304;11.902;2022-11-20T02:00:17;4.80;99.90
8928;DHT22;4499;48.304;11.902;2022-11-20T02:02:48;4.80;99.90
8928;DHT22;4499;48.304;11.902;2022-11-20T02:05:22;4.80;99.90
8928;DHT22;4499;48.304;11.902;2022-11-20T02:07:52;4.80;99.90
8928;DHT22;4499;48.304;11.902;2022-11-20T02:10:20;4.80;99.90
8928;DHT22;4499;48.304;11.902;2022-11-20T02:12:50;4.90;99.90
8928;DHT22;4499;48.304;11.902;2022-11-20T02:15:38;4.80;99.90
8928;DHT22;4499;48.304;11.902;2022-11-20T02:18:06;4.80;99.90
8928;DHT22;4499;48.304;11.902;2022-11-20T02:20:34;4.80;99.90
8928;DHT22;4499;48.304;11.902;2022-11-20T02:23:10;4.80;99.90
8928;DHT22;4499;48.304;11.902;2022-11-20T02:25:41;4.90;99.90
8928;DHT22;4499;48.304;11.902;2022-11-20T02:28:11;4.90;99.90
8928;DHT22;4499;48.304;11.902;2022-11-20T02:30:47;4.90;99.90
8928;DHT22;4499;48.304;11.902;2022-11-20T02:33:15;4.90;99.90
8928;DHT22;4499;48.304;11.902;2022-11-20T02:35:45;4.90;99.90
8928;DHT22;4499;48.304;11.902;2022-11-20T02:38:16;4.90;99.90
8928;DHT22;4499;48.304;11.902;2022-11-20T02:40:46;4.90;99.90
8928;DHT22;4499;48.304;11.902;2022-11-20T02:43:20;4.90;99.90
8928;DHT22;4499;48.304;11.902;2022-11-20T02:45:57;4.90;99.90
8928;DHT22;4499;48.304;11.902;2022-11-20T02:48:26;4.90;99.90
8928;DHT22;4499;48.304;11.902;2022-11-20T02:50:59;4.80;99.90
8928;DHT22;4499;48.304;11.902;2022-11-20T02:53:29;5.00;99.90
8928;DHT22;4499;48.304;11.902;2022-11-20T02:56:06;4.90;99.90
8928;DHT22;4499;48.304;11.902;2022-11-20T02:58:35;4.90;99.90
8928;DHT22;4499;48.304;11.902;2022-11-20T03:01:04;4.90;99.90
8928;DHT22;4499;48.304;11.902;2022-11-20T03:03:33;4.90;99.90
8928;DHT22;4499;48.304;11.902;2022-11-20T03:06:01;4.90;99.90
8928;DHT22;4499;48.304;11.902;2022-11-20T03:08:32;4.90;99.90
8928;DHT22;4499;48.304;11.902;2022-11-20T03:11:06;4.90;99.90
8928;DHT22;4499;48.304;11.902;2022-11-20T03:13:35;4.90;99.90
8928;DHT22;4499;48.304;11.902;2022-11-20T03:16:09;4.90;99.90
8928;DHT22;4499;48.304;11.902;2022-11-20T03:18:38;5.00;99.90
8928;DHT22;4499;48.304;11.902;2022-11-20T03:21:07;4.90;99.90
8928;DHT22;4499;48.304;11.902;2022-11-20T03:23:39;4.90;99.90
8928;DHT22;4499;48.304;11.902;2022-11-20T03:26:15;4.90;99.90
8928;DHT22;4499;48.304;11.902;2022-11-20T03:28:47;4.90;99.90
8928;DHT22;4499;48.304;11.902;2022-11-20T03:31:18;4.90;99.90
8928;DHT22;4499;48.304;11.902;2022-11-20T03:33:46;5.00;99.90
8928;DHT22;4499;48.304;11.902;2022-11-20T03:36:18;4.90;99.90
8928;DHT22;4499;48.304;11.902;2022-11-20T03:38:48;4.90;99.90
8928;DHT22;4499;48.304;11.902;2022-11-20T03:41:20;4.90;99.90
8928;DHT22;4499;48.304;11.902;2022-11-20T03:43:49;4.90;99.90
8928;DHT22;4499;48.304;11.902;2022-11-20T03:46:17;4.90;99.90
8928;DHT22;4499;48.304;11.902;2022-11-20T03:48:46;4.90;99.90
8928;DHT22;4499;48.304;11.902;2022-11-20T03:51:22;4.90;99.90
8928;DHT22;4499;48.304;11.902;2022-11-20T03:53:53;4.90;99.90
8928;DHT22;4499;48.304;11.902;2022-11-20T03:56:25;4.90;99.90
8928;DHT22;4499;48.304;11.902;2022-11-20T03:58:55;4.90;99.90
8928;DHT22;4499;48.304;11.902;2022-11-20T04:01:25;4.90;99.90
8928;DHT22;4499;48.304;11.902;2022-11-20T04:03:57;5.00;99.90
8928;DHT22;4499;48.304;11.902;2022-11-20T04:06:27;4.90;99.90
8928;DHT22;4499;48.304;11.902;2022-11-20T04:09:01;4.90;99.90
8928;DHT22;4499;48.304;11.902;2022-11-20T04:11:33;5.00;99.90
8928;DHT22;4499;48.304;11.902;2022-11-20T04:14:04;4.90;99.90
8928;DHT22;4499;48.304;11.902;2022-11-20T04:16:34;4.90;99.90
8928;DHT22;4499;48.304;11.902;2022-11-20T04:19:09;4.90;99.90
8928;DHT22;4499;48.304;11.902;2022-11-20T04:21:41;4.90;99.90
8928;DHT22;4499;48.304;11.902;2022-11-20T04:24:13;4.90;99.90
8928;DHT22;4499;48.304;11.902;2022-11-20T04:26:45;4.90;99.90
8928;DHT22;4499;48.304;11.902;2022-11-20T04:29:15;4.90;99.90
8928;DHT22;4499;48.304;11.902;2022-11-20T04:31:48;4.90;99.90
8928;DHT22;4499;48.304;11.902;2022-11-20T04:34:16;4.90;99.90
8928;DHT22;4499;48.304;11.902;2022-11-20T04:36:47;4.90;99.90
8928;DHT22;4499;48.304;11.902;2022-11-20T04:39:15;4.90;99.90
8928;DHT22;4499;48.304;11.902;2022-11-20T04:41:45;4.90;99.90
8928;DHT22;4499;48.304;11.902;2022-11-20T04:44:14;4.90;99.90
8928;DHT22;4499;48.304;11.902;2022-11-20T04:46:44;4.90;99.90
8928;DHT22;4499;48.304;11.902;2022-11-20T04:49:14;4.90;99.90
8928;DHT22;4499;48.304;11.902;2022-11-20T04:51:43;4.90;99.90
8928;DHT22;4499;48.304;11.902;2022-11-20T04:54:11;4.80;99.90
8928;DHT22;4499;48.304;11.902;2022-11-20T04:56:40;4.90;99.90
8928;DHT22;4499;48.304;11.902;2022-11-20T04:59:12;4.90;99.90
8928;DHT22;4499;48.304;11.902;2022-11-20T05:01:43;4.90;99.90
8928;DHT22;4499;48.304;11.902;2022-11-20T05:04:11;4.90;99.90
8928;DHT22;4499;48.304;11.902;2022-11-20T05:06:40;4.80;99.90
8928;DHT22;4499;48.304;11.902;2022-11-20T05:09:12;4.90;99.90
8928;DHT22;4499;48.304;11.902;2022-11-20T05:11:44;4.90;99.90
8928;DHT22;4499;48.304;11.902;2022-11-20T05:14:18;4.80;99.90
8928;DHT22;4499;48.304;11.902;2022-11-20T05:16:46;4.90;99.90
8928;DHT22;4499;48.304;11.902;2022-11-20T05:19:16;4.80;99.90
8928;DHT22;4499;48.304;11.902;2022-11-20T05:21:46;4.80;99.90
8928;DHT22;4499;48.304;11.902;2022-11-20T05:24:14;4.90;99.90
8928;DHT22;4499;48.304;11.902;2022-11-20T05:26:47;4.90;99.90
8928;DHT22;4499;48.304;11.902;2022-11-20T05:29:15;4.90;99.90
8928;DHT22;4499;48.304;11.902;2022-11-20T05:31:44;4.90;99.90
8928;DHT22;4499;48.304;11.902;2022-11-20T05:34:13;5.00;99.90
8928;DHT22;4499;48.304;11.902;2022-11-20T05:36:41;4.90;99.90
8928;DHT22;4499;48.304;11.902;2022-11-20T05:39:09;4.90;99.90
8928;DHT22;4499;48.304;11.902;2022-11-20T05:41:37;4.90;99.90
8928;DHT22;4499;48.304;11.902;2022-11-20T05:44:05;4.90;99.90
8928;DHT22;4499;48.304;11.902;2022-11-20T05:46:37;4.90;99.90
8928;DHT22;4499;48.304;11.902;2022-11-20T05:49:07;4.90;99.90
8928;DHT22;4499;48.304;11.902;2022-11-20T05:51:34;4.90;99.90
8928;DHT22;4499;48.304;11.902;2022-11-20T05:54:05;4.90;99.90
8928;DHT22;4499;48.304;11.902;2022-11-20T05:56:35;4.80;99.90
8928;DHT22;4499;48.304;11.902;2022-11-20T05:59:05;4.80;99.90
8928;DHT22;4499;48.304;11.902;2022-11-20T06:01:33;4.80;99.90
8928;DHT22;4499;48.304;11.902;2022-11-20T06:04:06;4.80;99.90
8928;DHT22;4499;48.304;11.902;2022-11-20T06:06:37;4.80;99.90
8928;DHT22;4499;48.304;11.902;2022-11-20T06:09:09;4.80;99.90
8928;DHT22;4499;48.304;11.902;2022-11-20T06:11:37;4.80;99.90
8928;DHT22;4499;48.304;11.902;2022-11-20T06:14:05;4.70;99.90
8928;DHT22;4499;48.304;11.902;2022-11-20T06:16:34;4.70;99.90
8928;DHT22;4499;48.304;11.902;2022-11-20T06:19:02;4.80;99.90
8928;DHT22;4499;48.304;11.902;2022-11-20T06:21:32;4.70;99.90
8928;DHT22;4499;48.304;11.902;2022-11-20T06:24:00;4.70;99.90
8928;DHT22;4499;48.304;11.902;2022-11-20T06:26:33;4.70;99.90
8928;DHT22;4499;48.304;11.902;2022-11-20T06:29:01;4.70;99.90
8928;DHT22;4499;48.304;11.902;2022-11-20T06:31:29;4.70;99.90
8928;DHT22;4499;48.304;11.902;2022-11-20T06:34:02;4.60;99.90
8928;DHT22;4499;48.304;11.902;2022-11-20T06:36:33;4.60;99.90
8928;DHT22;4499;48.304;11.902;2022-11-20T06:39:04;4.60;99.90
8928;DHT22;4499;48.304;11.902;2022-11-20T06:41:32;4.60;99.90
8928;DHT22;4499;48.304;11.902;2022-11-20T06:44:03;4.50;99.90
8928;DHT22;4499;48.304;11.902;2022-11-20T06:46:35;4.50;99.90
8928;DHT22;4499;48.304;11.902;2022-11-20T06:49:03;4.50;99.90
8928;DHT22;4499;48.304;11.902;2022-11-20T06:51:32;4.50;99.90
8928;DHT22;4499;48.304;11.902;2022-11-20T06:54:02;4.50;99.90
8928;DHT22;4499;48.304;11.902;2022-11-20T06:56:33;4.50;99.90
8928;DHT22;4499;48.304;11.902;2022-11-20T06:59:05;4.60;99.90
8928;DHT22;4499;48.304;11.902;2022-11-20T07:01:34;4.60;99.90
8928;DHT22;4499;48.304;11.902;2022-11-20T07:04:02;4.60;99.90
8928;DHT22;4499;48.304;11.902;2022-11-20T07:06:34;4.70;99.90
8928;DHT22;4499;48.304;11.902;2022-11-20T07:09:03;4.70;99.90
8928;DHT22;4499;48.304;11.902;2022-11-20T07:11:38;4.70;99.90
8928;DHT22;4499;48.304;11.902;2022-11-20T07:14:09;4.80;99.90
8928;DHT22;4499;48.304;11.902;2022-11-20T07:16:37;4.80;99.90
8928;DHT22;4499;48.304;11.902;2022-11-20T07:19:08;4.80;99.90
8928;DHT22;4499;48.304;11.902;2022-11-20T07:21:37;4.90;99.90
8928;DHT22;4499;48.304;11.902;2022-11-20T07:24:05;4.80;99.90
8928;DHT22;4499;48.304;11.902;2022-11-20T07:26:33;4.90;99.90
8928;DHT22;4499;48.304;11.902;2022-11-20T07:29:05;4.90;99.90
8928;DHT22;4499;48.304;11.902;2022-11-20T07:31:34;4.90;99.90
8928;DHT22;4499;48.304;11.902;2022-11-20T07:34:02;4.90;99.90
8928;DHT22;4499;48.304;11.902;2022-11-20T07:36:32;5.00;99.90
8928;DHT22;4499;48.304;11.902;2022-11-20T07:39:01;5.00;99.90
8928;DHT22;4499;48.304;11.902;2022-11-20T07:41:30;5.10;99.90
8928;DHT22;4499;48.304;11.902;2022-11-20T07:43:59;5.10;99.90
8928;DHT22;4499;48.304;11.902;2022-11-20T07:46:43;5.10;99.90
8928;DHT22;4499;48.304;11.902;2022-11-20T07:49:12;5.10;99.90
8928;DHT22;4499;48.304;11.902;2022-11-20T07:51:43;5.00;99.90
8928;DHT22;4499;48.304;11.902;2022-11-20T07:54:20;5.20;99.90
8928;DHT22;4499;48.304;11.902;2022-11-20T07:56:48;5.20;99.90
8928;DHT22;4499;48.304;11.902;2022-11-20T07:59:16;5.20;99.90
8928;DHT22;4499;48.304;11.902;2022-11-20T08:01:47;5.20;99.90
8928;DHT22;4499;48.304;11.902;2022-11-20T08:04:18;5.30;99.90
8928;DHT22;4499;48.304;11.902;2022-11-20T08:06:51;5.20;99.90
8928;DHT22;4499;48.304;11.902;2022-11-20T08:09:20;5.20;99.90
8928;DHT22;4499;48.304;11.902;2022-11-20T08:11:51;5.30;99.90
8928;DHT22;4499;48.304;11.902;2022-11-20T08:14:38;5.30;99.90
8928;DHT22;4499;48.304;11.902;2022-11-20T08:17:06;5.40;99.90
8928;DHT22;4499;48.304;11.902;2022-11-20T08:19:34;5.50;99.90
8928;DHT22;4499;48.304;11.902;2022-11-20T08:22:02;5.50;99.90
8928;DHT22;4499;48.304;11.902;2022-11-20T08:24:33;5.60;99.90
8928;DHT22;4499;48.304;11.902;2022-11-20T08:27:02;5.60;99.90
8928;DHT22;4499;48.304;11.902;2022-11-20T08:29:30;5.70;99.90
8928;DHT22;4499;48.304;11.902;2022-11-20T08:31:58;5.80;99.90
8928;DHT22;4499;48.304;11.902;2022-11-20T08:34:26;5.70;99.90
8928;DHT22;4499;48.304;11.902;2022-11-20T08:36:54;5.80;99.90
8928;DHT22;4499;48.304;11.902;2022-11-20T08:39:27;5.90;99.90
8928;DHT22;4499;48.304;11.902;2022-11-20T08:41:57;5.90;99.90
8928;DHT22;4499;48.304;11.902;2022-11-20T08:44:25;5.90;99.90
8928;DHT22;4499;48.304;11.902;2022-11-20T08:46:53;6.00;99.90
8928;DHT22;4499;48.304;11.902;2022-11-20T08:49:21;5.90;99.90
8928;DHT22;4499;48.304;11.902;2022-11-20T08:51:50;6.00;99.90
8928;DHT22;4499;48.304;11.902;2022-11-20T08:54:28;6.10;99.90
8928;DHT22;4499;48.304;11.902;2022-11-20T08:57:01;6.00;99.90
8928;DHT22;4499;48.304;11.902;2022-11-20T08:59:29;6.10;99.90
8928;DHT22;4499;48.304;11.902;2022-11-20T09:02:18;6.10;99.90
8928;DHT22;4499;48.304;11.902;2022-11-20T09:04:48;6.10;99.90
8928;DHT22;4499;48.304;11.902;2022-11-20T09:07:17;6.20;99.90
8928;DHT22;4499;48.304;11.902;2022-11-20T09:09:46;6.10;99.90
8928;DHT22;4499;48.304;11.902;2022-11-20T09:12:36;6.10;99.90
8928;DHT22;4499;48.304;11.902;2022-11-20T09:15:05;6.00;99.90
8928;DHT22;4499;48.304;11.902;2022-11-20T09:17:33;6.00;99.90
8928;DHT22;4499;48.304;11.902;2022-11-20T09:20:01;6.00;99.90
8928;DHT22;4499;48.304;11.902;2022-11-20T09:22:39;6.00;99.90
8928;DHT22;4499;48.304;11.902;2022-11-20T09:25:08;6.00;99.90
8928;DHT22;4499;48.304;11.902;2022-11-20T09:27:37;6.10;99.90
8928;DHT22;4499;48.304;11.902;2022-11-20T09:30:06;6.10;99.90
8928;DHT22;4499;48.304;11.902;2022-11-20T09:32:38;6.10;99.90
8928;DHT22;4499;48.304;11.902;2022-11-20T09:35:07;6.20;99.90
8928;DHT22;4499;48.304;11.902;2022-11-20T09:37:36;6.10;99.90
8928;DHT22;4499;48.304;11.902;2022-11-20T09:40:05;6.20;99.90
8928;DHT22;4499;48.304;11.902;2022-11-20T09:42:39;6.30;99.90
8928;DHT22;4499;48.304;11.902;2022-11-20T09:45:22;6.30;99.90
8928;DHT22;4499;48.304;11.902;2022-11-20T09:48:07;6.30;99.90
8928;DHT22;4499;48.304;11.902;2022-11-20T09:50:44;6.40;99.90
8928;DHT22;4499;48.304;11.902;2022-11-20T09:53:23;6.40;99.90
8928;DHT22;4499;48.304;11.902;2022-11-20T09:55:55;6.50;99.90
8928;DHT22;4499;48.304;11.902;2022-11-20T09:58:31;6.50;99.90
8928;DHT22;4499;48.304;11.902;2022-11-20T10:01:08;6.70;99.90
8928;DHT22;4499;48.304;11.902;2022-11-20T10:03:44;6.80;99.90
8928;DHT22;4499;48.304;11.902;2022-11-20T10:06:17;6.70;99.90
8928;DHT22;4499;48.304;11.902;2022-11-20T10:08:54;6.90;99.90
8928;DHT22;4499;48.304;11.902;2022-11-20T10:11:31;6.90;99.90
8928;DHT22;4499;48.304;11.902;2022-11-20T10:14:13;6.80;99.90
8928;DHT22;4499;48.304;11.902;2022-11-20T10:16:49;6.80;99.90
8928;DHT22;4499;48.304;11.902;2022-11-20T10:19:37;6.70;99.90
8928;DHT22;4499;48.304;11.902;2022-11-20T10:22:15;6.80;99.90
8928;DHT22;4499;48.304;11.902;2022-11-20T10:24:55;6.80;99.90
8928;DHT22;4499;48.304;11.902;2022-11-20T10:27:50;6.80;99.90
8928;DHT22;4499;48.304;11.902;2022-11-20T10:30:22;6.90;99.90
8928;DHT22;4499;48.304;11.902;2022-11-20T10:32:54;6.80;99.90
8928;DHT22;4499;48.304;11.902;2022-11-20T10:35:26;6.80;99.90
8928;DHT22;4499;48.304;11.902;2022-11-20T10:38:00;6.80;99.90
8928;DHT22;4499;48.304;11.902;2022-11-20T10:40:34;6.90;99.90
8928;DHT22;4499;48.304;11.902;2022-11-20T10:43:08;7.00;99.90
8928;DHT22;4499;48.304;11.902;2022-11-20T10:45:55;7.30;99.90
8928;DHT22;4499;48.304;11.902;2022-11-20T10:48:27;7.40;99.90
8928;DHT22;4499;48.304;11.902;2022-11-20T10:51:03;7.50;99.90
8928;DHT22;4499;48.304;11.902;2022-11-20T10:53:56;7.50;99.90
8928;DHT22;4499;48.304;11.902;2022-11-20T10:56:33;7.60;99.90
8928;DHT22;4499;48.304;11.902;2022-11-20T10:59:35;7.60;99.90
8928;DHT22;4499;48.304;11.902;2022-11-20T11:02:19;7.60;99.90
8928;DHT22;4499;48.304;11.902;2022-11-20T11:04:49;7.50;99.90
8928;DHT22;4499;48.304;11.902;2022-11-20T11:07:21;7.60;99.90
8928;DHT22;4499;48.304;11.902;2022-11-20T11:09:56;7.80;99.90
8928;DHT22;4499;48.304;11.902;2022-11-20T11:12:25;7.90;99.90
8928;DHT22;4499;48.304;11.902;2022-11-20T11:14:57;8.00;99.90
8928;DHT22;4499;48.304;11.902;2022-11-20T11:17:29;8.20;99.90
8928;DHT22;4499;48.304;11.902;2022-11-20T11:20:06;8.40;99.90
8928;DHT22;4499;48.304;11.902;2022-11-20T11:22:43;8.30;99.90
8928;DHT22;4499;48.304;11.902;2022-11-20T11:25:24;8.20;99.90
8928;DHT22;4499;48.304;11.902;2022-11-20T11:27:58;8.20;99.90
8928;DHT22;4499;48.304;11.902;2022-11-20T11:30:28;8.20;99.90
8928;DHT22;4499;48.304;11.902;2022-11-20T11:33:06;8.00;99.90
8928;DHT22;4499;48.304;11.902;2022-11-20T11:35:44;8.00;99.90
8928;DHT22;4499;48.304;11.902;2022-11-20T11:38:21;8.10;99.90
8928;DHT22;4499;48.304;11.902;2022-11-20T11:40:54;8.00;99.90
8928;DHT22;4499;48.304;11.902;2022-11-20T11:43:25;7.90;99.90
8928;DHT22;4499;48.304;11.902;2022-11-20T11:46:25;7.90;99.90
8928;DHT22;4499;48.304;11.902;2022-11-20T11:48:57;7.90;99.90
8928;DHT22;4499;48.304;11.902;2022-11-20T11:51:35;7.80;99.90
8928;DHT22;4499;48.304;11.902;2022-11-20T11:54:14;7.70;99.90
8928;DHT22;4499;48.304;11.902;2022-11-20T11:56:44;7.60;99.90
8928;DHT22;4499;48.304;11.902;2022-11-20T11:59:21;7.50;99.90
8928;DHT22;4499;48.304;11.902;2022-11-20T12:01:57;7.80;99.90
8928;DHT22;4499;48.304;11.902;2022-11-20T12:04:40;7.70;99.90
8928;DHT22;4499;48.304;11.902;2022-11-20T12:07:20;7.70;99.90
8928;DHT22;4499;48.304;11.902;2022-11-20T12:10:14;7.60;99.90
8928;DHT22;4499;48.304;11.902;2022-11-20T12:12:46;7.60;99.90
8928;DHT22;4499;48.304;11.902;2022-11-20T12:15:29;7.60;99.90
8928;DHT22;4499;48.304;11.902;2022-11-20T12:18:00;7.60;99.90
8928;DHT22;4499;48.304;11.902;2022-11-20T12:20:38;7.60;99.90
8928;DHT22;4499;48.304;11.902;2022-11-20T12:23:21;7.40;99.90
8928;DHT22;4499;48.304;11.902;2022-11-20T12:25:59;7.30;99.90
8928;DHT22;4499;48.304;11.902;2022-11-20T12:28:39;7.20;99.90
8928;DHT22;4499;48.304;11.902;2022-11-20T12:31:38;7.00;99.90
8928;DHT22;4499;48.304;11.902;2022-11-20T12:34:22;7.20;99.90
8928;DHT22;4499;48.304;11.902;2022-11-20T12:37:01;7.10;99.90
8928;DHT22;4499;48.304;11.902;2022-11-20T12:39:40;6.80;99.90
8928;DHT22;4499;48.304;11.902;2022-11-20T12:46:04;6.40;99.90
8928;DHT22;4499;48.304;11.902;2022-11-20T12:51:36;6.10;99.90
8928;DHT22;4499;48.304;11.902;2022-11-20T12:54:25;6.20;99.90
8928;DHT22;4499;48.304;11.902;2022-11-20T12:57:03;6.30;99.90
8928;DHT22;4499;48.304;11.902;2022-11-20T12:59:49;6.30;99.90
8928;DHT22;4499;48.304;11.902;2022-11-20T13:02:26;6.40;99.90
8928;DHT22;4499;48.304;11.902;2022-11-20T13:05:05;6.60;99.90
8928;DHT22;4499;48.304;11.902;2022-11-20T13:07:38;6.60;99.90
8928;DHT22;4499;48.304;11.902;2022-11-20T13:10:15;6.70;99.90
8928;DHT22;4499;48.304;11.902;2022-11-20T13:12:53;6.80;99.90
8928;DHT22;4499;48.304;11.902;2022-11-20T13:15:44;6.80;99.90
8928;DHT22;4499;48.304;11.902;2022-11-20T13:18:21;6.80;99.90
8928;DHT22;4499;48.304;11.902;2022-11-20T13:20:49;6.80;99.90
8928;DHT22;4499;48.304;11.902;2022-11-20T13:23:25;6.80;99.90
8928;DHT22;4499;48.304;11.902;2022-11-20T13:26:14;6.80;99.90
8928;DHT22;4499;48.304;11.902;2022-11-20T13:28:45;6.70;99.90
8928;DHT22;4499;48.304;11.902;2022-11-20T13:31:40;6.60;99.90
8928;DHT22;4499;48.304;11.902;2022-11-20T13:34:21;6.60;99.90
8928;DHT22;4499;48.304;11.902;2022-11-20T13:36:53;6.60;99.90
8928;DHT22;4499;48.304;11.902;2022-11-20T13:39:26;6.60;99.90
8928;DHT22;4499;48.304;11.902;2022-11-20T13:41:56;6.50;99.90
8928;DHT22;4499;48.304;11.902;2022-11-20T13:44:29;6.50;99.90
8928;DHT22;4499;48.304;11.902;2022-11-20T13:46:57;6.50;99.90
8928;DHT22;4499;48.304;11.902;2022-11-20T13:49:32;6.50;99.90
8928;DHT22;4499;48.304;11.902;2022-11-20T13:52:36;6.50;99.90
8928;DHT22;4499;48.304;11.902;2022-11-20T13:55:16;6.40;99.90
8928;DHT22;4499;48.304;11.902;2022-11-20T13:58:09;6.30;99.90
8928;DHT22;4499;48.304;11.902;2022-11-20T14:00:44;6.30;99.90
8928;DHT22;4499;48.304;11.902;2022-11-20T14:03:21;6.30;99.90
8928;DHT22;4499;48.304;11.902;2022-11-20T14:06:16;6.20;99.90
8928;DHT22;4499;48.304;11.902;2022-11-20T14:08:50;6.20;99.90
8928;DHT22;4499;48.304;11.902;2022-11-20T14:11:22;6.20;99.90
8928;DHT22;4499;48.304;11.902;2022-11-20T14:13:58;6.20;99.90
8928;DHT22;4499;48.304;11.902;2022-11-20T14:16:28;6.20;99.90
8928;DHT22;4499;48.304;11.902;2022-11-20T14:18:57;6.10;99.90
8928;DHT22;4499;48.304;11.902;2022-11-20T14:21:41;6.10;99.90
8928;DHT22;4499;48.304;11.902;2022-11-20T14:24:13;6.10;99.90
8928;DHT22;4499;48.304;11.902;2022-11-20T14:26:46;6.20;99.90
8928;DHT22;4499;48.304;11.902;2022-11-20T14:29:18;6.10;99.90
8928;DHT22;4499;48.304;11.902;2022-11-20T14:31:48;6.10;99.90
8928;DHT22;4499;48.304;11.902;2022-11-20T14:34:22;6.20;99.90
8928;DHT22;4499;48.304;11.902;2022-11-20T14:36:53;6.10;99.90
8928;DHT22;4499;48.304;11.902;2022-11-20T14:39:30;6.10;99.90
8928;DHT22;4499;48.304;11.902;2022-11-20T14:41:59;6.10;99.90
8928;DHT22;4499;48.304;11.902;2022-11-20T14:44:31;6.10;99.90
8928;DHT22;4499;48.304;11.902;2022-11-20T14:47:02;6.10;99.90
8928;DHT22;4499;48.304;11.902;2022-11-20T14:49:31;6.10;99.90
8928;DHT22;4499;48.304;11.902;2022-11-20T14:52:02;6.00;99.90
8928;DHT22;4499;48.304;11.902;2022-11-20T14:54:32;6.00;99.90
8928;DHT22;4499;48.304;11.902;2022-11-20T14:57:21;6.10;99.90
8928;DHT22;4499;48.304;11.902;2022-11-20T15:00:19;6.00;99.90
8928;DHT22;4499;48.304;11.902;2022-11-20T15:02:49;6.00;99.90
8928;DHT22;4499;48.304;11.902;2022-11-20T15:05:20;6.00;99.90
8928;DHT22;4499;48.304;11.902;2022-11-20T15:07:51;5.90;99.90
8928;DHT22;4499;48.304;11.902;2022-11-20T15:10:24;5.90;99.90
8928;DHT22;4499;48.304;11.902;2022-11-20T15:12:54;5.90;99.90
8928;DHT22;4499;48.304;11.902;2022-11-20T15:15:29;5.90;99.90
8928;DHT22;4499;48.304;11.902;2022-11-20T15:17:58;5.90;99.90
8928;DHT22;4499;48.304;11.902;2022-11-20T15:20:28;5.90;99.90
8928;DHT22;4499;48.304;11.902;2022-11-20T15:22:57;5.90;99.90
8928;DHT22;4499;48.304;11.902;2022-11-20T15:25:26;5.90;99.90
8928;DHT22;4499;48.304;11.902;2022-11-20T15:27:56;5.90;99.90
8928;DHT22;4499;48.304;11.902;2022-11-20T15:30:26;5.80;99.90
8928;DHT22;4499;48.304;11.902;2022-11-20T15:32:54;5.90;99.90
8928;DHT22;4499;48.304;11.902;2022-11-20T15:35:25;5.90;99.90
8928;DHT22;4499;48.304;11.902;2022-11-20T15:37:53;5.90;99.90
8928;DHT22;4499;48.304;11.902;2022-11-20T15:40:21;5.80;99.90
8928;DHT22;4499;48.304;11.902;2022-11-20T15:42:51;5.80;99.90
8928;DHT22;4499;48.304;11.902;2022-11-20T15:45:42;5.80;99.90
8928;DHT22;4499;48.304;11.902;2022-11-20T15:48:20;5.80;99.90
8928;DHT22;4499;48.304;11.902;2022-11-20T15:50:52;5.80;99.90
8928;DHT22;4499;48.304;11.902;2022-11-20T15:53:21;5.80;99.90
8928;DHT22;4499;48.304;11.902;2022-11-20T15:55:49;5.80;99.90
8928;DHT22;4499;48.304;11.902;2022-11-20T15:58:17;5.70;99.90
8928;DHT22;4499;48.304;11.902;2022-11-20T16:00:53;5.70;99.90
8928;DHT22;4499;48.304;11.902;2022-11-20T16:03:21;5.70;99.90
8928;DHT22;4499;48.304;11.902;2022-11-20T16:05:49;5.70;99.90
8928;DHT22;4499;48.304;11.902;2022-11-20T16:08:17;5.70;99.90
8928;DHT22;4499;48.304;11.902;2022-11-20T16:10:45;5.70;99.90
8928;DHT22;4499;48.304;11.902;2022-11-20T16:13:15;5.70;99.90
8928;DHT22;4499;48.304;11.902;2022-11-20T16:16:07;5.70;99.90
8928;DHT22;4499;48.304;11.902;2022-11-20T16:18:40;5.60;99.90
8928;DHT22;4499;48.304;11.902;2022-11-20T16:21:11;5.50;99.90
8928;DHT22;4499;48.304;11.902;2022-11-20T16:23:40;5.40;99.90
8928;DHT22;4499;48.304;11.902;2022-11-20T16:26:14;5.40;99.90
8928;DHT22;4499;48.304;11.902;2022-11-20T16:28:43;5.30;99.90
8928;DHT22;4499;48.304;11.902;2022-11-20T16:31:16;5.30;99.90
8928;DHT22;4499;48.304;11.902;2022-11-20T16:33:52;5.30;99.90
8928;DHT22;4499;48.304;11.902;2022-11-20T16:36:22;5.20;99.90
8928;DHT22;4499;48.304;11.902;2022-11-20T16:38:56;5.10;99.90
8928;DHT22;4499;48.304;11.902;2022-11-20T16:41:27;5.10;99.90
8928;DHT22;4499;48.304;11.902;2022-11-20T16:43:57;5.00;99.90
8928;DHT22;4499;48.304;11.902;2022-11-20T16:46:31;4.90;99.90